Time;durP1;ratioP1;P1;durP2;ratioP2;P2;SDS_P1;SDS_P2;PMS_P1;PMS_P2;Temp;Humidity;BMP_temperature;BMP_pressure;BME280_temperature;BME280_humidity;BME280_pressure;Samples;Min_cycle;Max_cycle;Signal;HPM_P1;HPM_P2
2023/01/22 00:01:01;;;;;;;5.40;2.63;;;;;;;;;;5028573;28;20032;-85
2023/01/22 00:03:26;;;;;;;4.65;2.50;;;;;;;;;;5042546;28;20373;-84
2023/01/22 00:05:51;;;;;;;5.35;2.60;;;;;;;;;;5028071;28;20076;-84
2023/01/22 00:08:18;;;;;;;5.03;2.58;;;;;;;;;;5045275;28;20044;-85
2023/01/22 00:10:53;;;;;;;5.63;2.45;;;;;;;;;;5044354;28;20032;-84
2023/01/22 00:13:20;;;;;;;4.78;2.42;;;;;;;;;;5023847;28;20040;-85
2023/01/22 00:15:46;;;;;;;5.78;2.80;;;;;;;;;;5018768;28;20467;-85
2023/01/22 00:18:11;;;;;;;4.28;2.10;;;;;;;;;;5044584;28;20119;-86
2023/01/22 00:20:37;;;;;;;5.50;2.60;;;;;;;;;;5031272;28;20028;-87
2023/01/22 00:23:02;;;;;;;5.80;2.45;;;;;;;;;;5029078;28;20226;-87
2023/01/22 00:25:27;;;;;;;12.27;4.93;;;;;;;;;;5030125;28;20459;-90
2023/01/22 00:27:53;;;;;;;8.45;3.10;;;;;;;;;;5035487;28;20127;-86
2023/01/22 00:30:19;;;;;;;5.80;2.88;;;;;;;;;;5033240;28;20394;-87
2023/01/22 00:32:45;;;;;;;5.05;2.78;;;;;;;;;;5032499;28;20032;-87
2023/01/22 00:35:10;;;;;;;5.65;2.65;;;;;;;;;;5048501;28;20125;-86
2023/01/22 00:37:36;;;;;;;6.25;3.42;;;;;;;;;;5032065;28;20852;-86
2023/01/22 00:40:01;;;;;;;4.88;2.60;;;;;;;;;;5028216;28;20369;-86
2023/01/22 00:42:27;;;;;;;5.82;3.05;;;;;;;;;;5048920;28;20044;-86
2023/01/22 00:44:52;;;;;;;5.07;2.58;;;;;;;;;;5032624;28;20035;-85
2023/01/22 00:47:18;;;;;;;5.80;2.95;;;;;;;;;;5048552;28;20068;-86
2023/01/22 00:49:43;;;;;;;5.57;2.80;;;;;;;;;;5031066;28;20037;-86
2023/01/22 00:52:08;;;;;;;7.20;3.05;;;;;;;;;;5031746;28;20500;-87
2023/01/22 00:54:34;;;;;;;6.78;3.25;;;;;;;;;;5036953;28;20156;-87
2023/01/22 00:56:59;;;;;;;4.97;2.90;;;;;;;;;;5047986;28;20048;-85
2023/01/22 00:59:24;;;;;;;8.30;3.22;;;;;;;;;;5031776;28;20500;-86
2023/01/22 01:01:50;;;;;;;9.13;3.28;;;;;;;;;;5047443;28;20029;-86
2023/01/22 01:04:15;;;;;;;4.88;2.65;;;;;;;;;;5031320;28;20039;-86
2023/01/22 01:06:41;;;;;;;5.43;3.00;;;;;;;;;;5065673;28;20067;-86
2023/01/22 01:09:06;;;;;;;5.57;2.92;;;;;;;;;;5027506;28;20032;-86
2023/01/22 01:11:31;;;;;;;5.75;3.05;;;;;;;;;;5046594;28;20116;-86
2023/01/22 01:13:57;;;;;;;5.07;2.63;;;;;;;;;;5048963;28;20056;-88
2023/01/22 01:16:28;;;;;;;8.75;2.92;;;;;;;;;;5047473;28;20024;-85
2023/01/22 01:19:05;;;;;;;5.90;2.90;;;;;;;;;;5031552;28;20488;-85
2023/01/22 01:21:32;;;;;;;5.75;3.00;;;;;;;;;;5023432;28;20040;-85
2023/01/22 01:23:58;;;;;;;6.03;3.10;;;;;;;;;;5036064;28;20120;-85
2023/01/22 01:26:23;;;;;;;5.82;3.08;;;;;;;;;;5020321;28;20028;-85
2023/01/22 01:28:51;;;;;;;6.28;3.22;;;;;;;;;;5032600;28;20037;-88
2023/01/22 01:31:17;;;;;;;;;;;;;;;;;;5036302;28;20033;-85
2023/01/22 01:33:43;;;;;;;6.20;3.40;;;;;;;;;;5026959;28;19916;-85
2023/01/22 01:36:17;;;;;;;6.65;3.28;;;;;;;;;;5047016;28;20521;-85
2023/01/22 01:38:43;;;;;;;6.00;2.90;;;;;;;;;;5046992;28;20036;-85
2023/01/22 01:41:12;;;;;;;6.50;3.22;;;;;;;;;;5033364;28;20025;-86
2023/01/22 01:43:37;;;;;;;7.25;3.25;;;;;;;;;;5064612;28;20037;-87
2023/01/22 01:46:04;;;;;;;5.63;2.92;;;;;;;;;;5047082;28;20036;-86
2023/01/22 01:48:38;;;;;;;5.82;3.05;;;;;;;;;;5031406;28;20111;-86
2023/01/22 01:51:06;;;;;;;5.43;3.03;;;;;;;;;;5022783;28;20201;-85
2023/01/22 01:53:31;;;;;;;6.38;3.00;;;;;;;;;;5048287;28;20262;-84
2023/01/22 01:55:57;;;;;;;7.10;3.20;;;;;;;;;;5030904;28;20154;-85
2023/01/22 01:58:24;;;;;;;6.10;3.00;;;;;;;;;;5044475;28;20029;-85
2023/01/22 02:00:54;;;;;;;5.78;2.72;;;;;;;;;;5021010;28;20032;-85
2023/01/22 02:03:19;;;;;;;6.65;3.10;;;;;;;;;;5046850;28;20037;-84
2023/01/22 02:05:45;;;;;;;7.00;3.33;;;;;;;;;;5045936;28;20717;-85
2023/01/22 02:08:10;;;;;;;7.97;2.90;;;;;;;;;;5047879;28;20066;-85
2023/01/22 02:10:36;;;;;;;6.15;2.80;;;;;;;;;;5030868;28;20035;-86
2023/01/22 02:13:06;;;;;;;7.40;3.30;;;;;;;;;;5031206;28;20037;-86
2023/01/22 02:15:32;;;;;;;5.13;3.03;;;;;;;;;;5045798;28;20040;-86
2023/01/22 02:17:57;;;;;;;6.53;2.92;;;;;;;;;;5029398;28;20059;-86
2023/01/22 02:20:23;;;;;;;5.43;2.63;;;;;;;;;;5046067;28;20085;-86
2023/01/22 02:22:48;;;;;;;6.10;3.10;;;;;;;;;;5030758;28;20044;-88
2023/01/22 02:25:14;;;;;;;5.15;2.78;;;;;;;;;;5031248;28;20116;-85
2023/01/22 02:27:40;;;;;;;5.20;3.00;;;;;;;;;;5030458;28;20048;-87
2023/01/22 02:30:06;;;;;;;5.03;2.70;;;;;;;;;;5036135;28;20492;-86
2023/01/22 02:32:31;;;;;;;4.68;2.55;;;;;;;;;;5031737;28;20036;-86
2023/01/22 02:34:57;;;;;;;4.93;2.85;;;;;;;;;;5046889;28;20474;-86
2023/01/22 02:37:22;;;;;;;5.07;2.83;;;;;;;;;;5046170;28;20040;-86
2023/01/22 02:39:47;;;;;;;6.30;3.10;;;;;;;;;;5030732;28;25285;-86
2023/01/22 02:42:13;;;;;;;7.63;2.95;;;;;;;;;;5046786;28;20068;-86
2023/01/22 02:44:38;;;;;;;6.95;3.25;;;;;;;;;;5029406;28;20036;-85
2023/01/22 02:47:04;;;;;;;4.82;2.80;;;;;;;;;;5033236;28;20039;-86
2023/01/22 02:49:29;;;;;;;4.72;2.80;;;;;;;;;;5028123;28;20036;-86
2023/01/22 02:51:55;;;;;;;5.55;2.72;;;;;;;;;;5045960;28;20032;-86
2023/01/22 02:54:20;;;;;;;6.85;3.05;;;;;;;;;;5030250;28;20519;-85
2023/01/22 02:56:45;;;;;;;5.68;3.13;;;;;;;;;;5027415;28;20381;-87
2023/01/22 02:59:11;;;;;;;4.90;2.90;;;;;;;;;;5025190;28;20045;-86
2023/01/22 03:01:36;;;;;;;4.55;2.47;;;;;;;;;;5043784;28;20438;-86
2023/01/22 03:04:09;;;;;;;5.32;2.80;;;;;;;;;;5019892;28;20044;-86
2023/01/22 03:06:36;;;;;;;6.18;3.00;;;;;;;;;;5019167;28;20285;-86
2023/01/22 03:09:02;;;;;;;5.15;2.58;;;;;;;;;;5023243;28;20048;-86
2023/01/22 03:11:29;;;;;;;5.55;2.78;;;;;;;;;;5028883;28;20090;-86
2023/01/22 03:22:18;;;;;;;4.60;2.33;;;;;;;;;;5047581;28;20396;-87
2023/01/22 03:24:49;;;;;;;6.05;2.40;;;;;;;;;;5045604;28;20492;-87
2023/01/22 03:27:15;;;;;;;4.38;2.42;;;;;;;;;;5025240;28;20060;-88
2023/01/22 03:29:40;;;;;;;4.88;2.70;;;;;;;;;;5045664;28;20139;-88
2023/01/22 03:32:05;;;;;;;4.60;2.40;;;;;;;;;;5045010;28;20484;-87
2023/01/22 03:34:31;;;;;;;4.60;2.50;;;;;;;;;;5046008;28;20873;-87
2023/01/22 03:36:56;;;;;;;6.10;2.92;;;;;;;;;;5028927;28;20087;-87
2023/01/22 03:39:22;;;;;;;4.65;2.38;;;;;;;;;;5045686;28;20036;-86
2023/01/22 03:41:47;;;;;;;4.30;2.22;;;;;;;;;;5044493;28;20941;-86
2023/01/22 03:44:13;;;;;;;4.45;2.30;;;;;;;;;;5028482;28;20036;-86
2023/01/22 03:46:39;;;;;;;6.10;2.75;;;;;;;;;;5044605;28;20106;-84
2023/01/22 03:49:08;;;;;;;5.25;2.42;;;;;;;;;;5023441;28;20040;-86
2023/01/22 03:51:34;;;;;;;5.07;2.40;;;;;;;;;;5028376;28;20067;-87
2023/01/22 03:53:59;;;;;;;4.88;2.15;;;;;;;;;;5044666;28;20624;-85
2023/01/22 03:56:25;;;;;;;4.10;2.20;;;;;;;;;;5034997;28;20029;-85
2023/01/22 03:58:50;;;;;;;4.53;2.60;;;;;;;;;;5029394;28;20032;-87
2023/01/22 04:01:18;;;;;;;6.53;2.40;;;;;;;;;;5029581;28;20032;-87
2023/01/22 04:03:43;;;;;;;;;;;;;;;;;;5028592;28;20044;-86
2023/01/22 04:06:10;;;;;;;3.70;2.10;;;;;;;;;;5023425;28;19932;-86
2023/01/22 04:08:36;;;;;;;5.47;2.63;;;;;;;;;;5019931;28;20044;-88
2023/01/22 04:11:02;;;;;;;4.75;2.30;;;;;;;;;;5044503;28;20118;-85
2023/01/22 04:13:29;;;;;;;4.75;2.47;;;;;;;;;;5043759;28;20095;-86
2023/01/22 04:15:55;;;;;;;4.40;2.50;;;;;;;;;;5044511;28;20233;-83
2023/01/22 04:18:20;;;;;;;5.03;2.80;;;;;;;;;;5028457;28;20112;-87
2023/01/22 04:20:49;;;;;;;4.90;2.90;;;;;;;;;;5032233;28;20052;-89
2023/01/22 04:23:15;;;;;;;5.10;2.75;;;;;;;;;;5025273;28;20047;-85
2023/01/22 04:25:41;;;;;;;4.35;2.53;;;;;;;;;;5027918;28;20036;-88
2023/01/22 04:28:07;;;;;;;5.47;2.95;;;;;;;;;;5019852;28;20483;-88
2023/01/22 04:30:33;;;;;;;5.80;2.65;;;;;;;;;;5044363;28;20032;-88
2023/01/22 04:32:58;;;;;;;5.78;3.13;;;;;;;;;;5045670;28;20036;-88
2023/01/22 04:35:23;;;;;;;5.20;2.70;;;;;;;;;;5027435;28;20131;-89
2023/01/22 04:37:49;;;;;;;4.38;2.55;;;;;;;;;;5040085;28;20060;-88
2023/01/22 04:40:14;;;;;;;4.80;2.50;;;;;;;;;;5028816;28;20043;-87
2023/01/22 04:42:40;;;;;;;5.22;2.83;;;;;;;;;;5029021;28;20476;-86
2023/01/22 04:45:06;;;;;;;5.70;3.13;;;;;;;;;;5043174;28;20055;-88
2023/01/22 04:47:32;;;;;;;5.00;2.65;;;;;;;;;;5025995;28;20074;-86
2023/01/22 04:49:57;;;;;;;5.57;2.90;;;;;;;;;;5031142;28;20033;-87
2023/01/22 04:52:22;;;;;;;6.05;3.13;;;;;;;;;;5027653;28;20037;-86
2023/01/22 04:54:50;;;;;;;6.13;3.08;;;;;;;;;;5024387;28;26103;-88
2023/01/22 04:57:16;;;;;;;5.45;3.03;;;;;;;;;;5025880;28;20480;-86
2023/01/22 04:59:41;;;;;;;5.65;3.03;;;;;;;;;;5044828;28;20084;-87
2023/01/22 05:02:07;;;;;;;5.15;2.90;;;;;;;;;;5027676;28;20040;-87
2023/01/22 05:04:32;;;;;;;5.32;2.95;;;;;;;;;;5023313;28;20514;-87
2023/01/22 05:06:57;;;;;;;6.25;3.00;;;;;;;;;;5044724;28;20040;-88
2023/01/22 05:09:24;;;;;;;6.97;3.53;;;;;;;;;;5019453;28;20075;-86
2023/01/22 05:11:49;;;;;;;5.82;2.90;;;;;;;;;;5029752;28;20090;-87
2023/01/22 05:14:15;;;;;;;5.53;3.30;;;;;;;;;;5031684;28;20059;-87
2023/01/22 05:16:40;;;;;;;6.07;3.30;;;;;;;;;;5030815;28;20420;-88
2023/01/22 05:19:06;;;;;;;5.75;3.20;;;;;;;;;;5048316;28;20036;-87
2023/01/22 05:21:31;;;;;;;6.95;3.85;;;;;;;;;;5030407;28;20102;-88
2023/01/22 05:23:56;;;;;;;6.38;3.42;;;;;;;;;;5047628;28;20754;-88
2023/01/22 05:26:22;;;;;;;5.75;3.40;;;;;;;;;;5046563;28;20377;-87
2023/01/22 05:28:47;;;;;;;6.18;3.50;;;;;;;;;;5047735;28;20070;-86
2023/01/22 05:31:12;;;;;;;6.28;3.67;;;;;;;;;;5030347;28;20127;-88
2023/01/22 05:33:39;;;;;;;7.03;3.65;;;;;;;;;;5034214;28;20488;-87
2023/01/22 05:36:05;;;;;;;7.28;3.78;;;;;;;;;;5035835;28;20039;-85
2023/01/22 05:38:31;;;;;;;6.78;3.40;;;;;;;;;;5047850;28;20040;-85
2023/01/22 05:40:56;;;;;;;6.15;3.25;;;;;;;;;;5027611;28;20029;-86
2023/01/22 05:43:22;;;;;;;7.03;3.90;;;;;;;;;;5034813;28;20036;-88
2023/01/22 05:45:47;;;;;;;7.78;4.18;;;;;;;;;;5024656;28;20113;-88
2023/01/22 05:48:13;;;;;;;7.40;3.90;;;;;;;;;;5008769;28;20040;-88
2023/01/22 05:50:39;;;;;;;6.82;4.00;;;;;;;;;;5023361;28;20051;-89
2023/01/22 05:53:05;;;;;;;7.65;4.15;;;;;;;;;;5038052;28;20499;-88
2023/01/22 05:55:31;;;;;;;7.18;3.83;;;;;;;;;;5046060;28;20032;-87
2023/01/22 05:57:57;;;;;;;8.30;4.30;;;;;;;;;;5048165;28;20086;-89
2023/01/22 06:00:22;;;;;;;7.10;4.00;;;;;;;;;;5034319;28;20040;-88
2023/01/22 06:02:48;;;;;;;7.95;3.85;;;;;;;;;;5030296;28;20048;-88
2023/01/22 06:05:13;;;;;;;6.28;3.60;;;;;;;;;;5046887;28;20044;-88
2023/01/22 06:07:39;;;;;;;6.80;3.83;;;;;;;;;;5045970;28;20471;-88
2023/01/22 06:10:05;;;;;;;7.97;4.00;;;;;;;;;;5035203;28;20160;-87
2023/01/22 06:12:30;;;;;;;8.18;4.32;;;;;;;;;;5029329;28;20463;-87
2023/01/22 06:14:55;;;;;;;6.38;3.78;;;;;;;;;;5047215;28;20093;-86
2023/01/22 06:17:21;;;;;;;8.07;4.40;;;;;;;;;;5046131;28;20085;-87
2023/01/22 06:19:46;;;;;;;7.75;4.30;;;;;;;;;;5027437;28;20763;-86
2023/01/22 06:22:12;;;;;;;8.02;4.35;;;;;;;;;;5046949;28;20040;-87
2023/01/22 06:24:38;;;;;;;7.68;3.78;;;;;;;;;;5047440;28;20072;-86
2023/01/22 06:27:03;;;;;;;7.63;4.20;;;;;;;;;;5029082;28;20044;-86
2023/01/22 06:29:29;;;;;;;8.15;4.43;;;;;;;;;;5016280;28;20118;-82
2023/01/22 06:31:55;;;;;;;8.40;4.47;;;;;;;;;;5027124;28;20040;-86
2023/01/22 06:34:20;;;;;;;9.48;4.40;;;;;;;;;;5013787;28;20695;-86
2023/01/22 06:36:46;;;;;;;7.90;4.30;;;;;;;;;;5015745;28;20041;-85
2023/01/22 06:39:11;;;;;;;8.38;4.38;;;;;;;;;;5010344;28;20037;-84
2023/01/22 06:41:37;;;;;;;8.30;4.38;;;;;;;;;;5023922;28;20041;-87
2023/01/22 06:44:02;;;;;;;8.43;4.45;;;;;;;;;;5017888;28;20052;-87
2023/01/22 06:46:28;;;;;;;8.38;4.70;;;;;;;;;;5020154;28;20396;-88
2023/01/22 06:48:53;;;;;;;8.52;4.65;;;;;;;;;;5016839;28;20399;-86
2023/01/22 06:51:18;;;;;;;8.57;4.55;;;;;;;;;;4999811;28;20090;-86
2023/01/22 06:53:45;;;;;;;8.98;4.93;;;;;;;;;;5011999;28;20184;-86
2023/01/22 06:56:10;;;;;;;8.02;4.45;;;;;;;;;;5008869;28;20253;-87
2023/01/22 06:58:35;;;;;;;9.25;4.80;;;;;;;;;;5011839;28;20033;-85
2023/01/22 07:01:02;;;;;;;7.38;4.30;;;;;;;;;;5007419;28;20052;-86
2023/01/22 07:03:28;;;;;;;7.82;4.00;;;;;;;;;;5012796;28;20412;-88
2023/01/22 07:05:58;;;;;;;8.43;4.70;;;;;;;;;;5016917;28;20040;-87
2023/01/22 07:08:24;;;;;;;8.90;4.60;;;;;;;;;;5013095;28;20033;-87
2023/01/22 07:11:34;;;;;;;8.93;4.82;;;;;;;;;;4982976;28;20049;-87
2023/01/22 07:14:00;;;;;;;9.57;4.53;;;;;;;;;;4938738;28;20149;-86
2023/01/22 07:16:37;;;;;;;8.90;5.05;;;;;;;;;;4969346;28;20133;-88
2023/01/22 07:22:32;;;;;;;8.98;4.43;;;;;;;;;;5014232;28;20492;-88
2023/01/22 07:31:33;;;;;;;8.30;4.47;;;;;;;;;;4968972;28;20060;-87
2023/01/22 07:34:05;;;;;;;8.52;4.93;;;;;;;;;;4956163;28;20057;-87
2023/01/22 07:37:16;;;;;;;;;;;;;;;;;;;;;
2023/01/22 07:39:52;;;;;;;8.88;4.97;;;;;;;;;;4963103;28;20580;-89
2023/01/22 07:42:31;;;;;;;9.57;4.70;;;;;;;;;;4940835;28;20045;-87
2023/01/22 07:45:24;;;;;;;7.60;4.28;;;;;;;;;;4979883;28;20040;-86
2023/01/22 07:47:58;;;;;;;9.98;5.20;;;;;;;;;;4957781;28;20045;-88
2023/01/22 07:50:39;;;;;;;9.02;5.43;;;;;;;;;;4964695;28;20045;-89
2023/01/22 07:53:11;;;;;;;8.32;4.95;;;;;;;;;;5010433;28;20098;-88
2023/01/22 07:55:47;;;;;;;8.55;5.03;;;;;;;;;;4953812;28;20036;-89
2023/01/22 08:02:08;;;;;;;8.13;4.43;;;;;;;;;;4992590;28;20095;-86
2023/01/22 08:04:43;;;;;;;9.10;4.53;;;;;;;;;;4962371;28;20046;-88
2023/01/22 08:07:22;;;;;;;7.55;4.43;;;;;;;;;;4968630;28;20393;-87
2023/01/22 08:10:18;;;;;;;7.68;4.70;;;;;;;;;;4973796;28;20052;-89
2023/01/22 08:23:23;;;;;;;7.72;4.22;;;;;;;;;;4869767;29;20099;-89
2023/01/22 08:26:10;;;;;;;8.20;4.43;;;;;;;;;;4858899;29;20048;-89
2023/01/22 08:28:52;;;;;;;8.82;4.03;;;;;;;;;;4862138;28;20141;-89
2023/01/22 08:31:58;;;;;;;7.35;3.80;;;;;;;;;;4895080;28;20031;-88
2023/01/22 08:35:06;;;;;;;7.07;4.13;;;;;;;;;;4852676;29;20574;-90
2023/01/22 08:37:35;;;;;;;7.15;3.42;;;;;;;;;;4874933;29;20040;-89
2023/01/22 08:40:12;;;;;;;7.18;3.78;;;;;;;;;;4893282;29;20074;-87
2023/01/22 08:45:48;;;;;;;6.97;3.80;;;;;;;;;;4944706;28;20102;-89
2023/01/22 08:48:14;;;;;;;9.05;4.18;;;;;;;;;;4934820;28;20049;-88
2023/01/22 08:50:41;;;;;;;7.80;4.63;;;;;;;;;;4961512;28;20134;-87
2023/01/22 08:53:07;;;;;;;8.38;4.35;;;;;;;;;;5024822;28;20029;-89
2023/01/22 08:55:32;;;;;;;8.52;4.47;;;;;;;;;;5025575;28;20037;-89
2023/01/22 08:57:58;;;;;;;8.23;4.43;;;;;;;;;;5032788;28;20063;-86
2023/01/22 09:00:24;;;;;;;7.80;4.32;;;;;;;;;;5036749;28;20131;-86
2023/01/22 09:02:50;;;;;;;7.82;4.20;;;;;;;;;;5031494;28;20048;-84
2023/01/22 09:05:15;;;;;;;8.05;4.57;;;;;;;;;;5031037;28;20549;-86
2023/01/22 09:07:41;;;;;;;7.88;4.35;;;;;;;;;;5032441;28;20518;-84
2023/01/22 09:10:09;;;;;;;7.68;4.43;;;;;;;;;;5048109;28;20037;-86
2023/01/22 09:12:35;;;;;;;9.45;4.88;;;;;;;;;;5039789;28;20067;-83
2023/01/22 09:15:01;;;;;;;9.50;4.65;;;;;;;;;;5034703;28;20029;-82
2023/01/22 09:17:26;;;;;;;8.70;4.43;;;;;;;;;;5037842;28;20141;-84
2023/01/22 09:19:52;;;;;;;9.70;4.50;;;;;;;;;;5065780;28;20111;-86
2023/01/22 09:22:19;;;;;;;10.23;4.93;;;;;;;;;;5030070;28;20047;-83
2023/01/22 09:24:44;;;;;;;9.13;4.90;;;;;;;;;;5047693;28;20060;-87
2023/01/22 09:27:10;;;;;;;11.80;6.32;;;;;;;;;;5026594;28;20039;-86
2023/01/22 09:29:36;;;;;;;8.50;4.88;;;;;;;;;;5030667;28;20049;-83
2023/01/22 09:32:02;;;;;;;8.13;4.82;;;;;;;;;;5031833;28;20032;-84
2023/01/22 09:34:27;;;;;;;9.45;5.30;;;;;;;;;;5037706;28;20120;-83
2023/01/22 09:36:53;;;;;;;9.15;4.93;;;;;;;;;;5032631;28;20044;-85
2023/01/22 09:39:18;;;;;;;8.77;4.97;;;;;;;;;;5047230;28;20067;-83
2023/01/22 09:41:50;;;;;;;9.95;5.07;;;;;;;;;;5034189;28;20211;-83
2023/01/22 09:44:37;;;;;;;10.80;5.03;;;;;;;;;;5048478;28;20131;-86
2023/01/22 09:47:10;;;;;;;10.32;5.30;;;;;;;;;;5045698;28;20530;-81
2023/01/22 09:49:41;;;;;;;9.63;5.00;;;;;;;;;;5030889;28;20044;-82
2023/01/22 09:52:08;;;;;;;8.40;5.13;;;;;;;;;;5029056;28;20033;-83
2023/01/22 09:54:34;;;;;;;8.93;5.28;;;;;;;;;;5047055;28;20408;-84
2023/01/22 09:57:03;;;;;;;9.63;4.90;;;;;;;;;;5030645;28;20107;-85
2023/01/22 09:59:38;;;;;;;11.50;5.50;;;;;;;;;;5046666;28;20536;-85
2023/01/22 10:02:41;;;;;;;10.80;5.05;;;;;;;;;;5046111;28;20040;-83
2023/01/22 10:05:21;;;;;;;10.00;5.50;;;;;;;;;;4994202;28;20468;-84
2023/01/22 10:08:25;;;;;;;9.02;5.22;;;;;;;;;;5040434;28;20032;-90
2023/01/22 10:11:46;;;;;;;9.13;5.13;;;;;;;;;;4885318;28;20033;-88
2023/01/22 10:14:30;;;;;;;15.55;7.65;;;;;;;;;;4876879;28;20594;-88
2023/01/22 10:16:59;;;;;;;13.15;6.82;;;;;;;;;;5010226;28;20038;-85
2023/01/22 10:19:38;;;;;;;8.77;4.82;;;;;;;;;;5018970;28;20048;-85
2023/01/22 10:26:28;;;;;;;;;;;;;;;;;;;;;
2023/01/22 10:46:47;;;;;;;10.35;5.40;;;;;;;;;;4979773;28;20048;-84
2023/01/22 10:49:29;;;;;;;9.73;5.53;;;;;;;;;;4905695;28;20439;-82
2023/01/22 10:52:08;;;;;;;10.93;5.80;;;;;;;;;;4852172;29;20556;-83
2023/01/22 10:54:38;;;;;;;9.65;5.53;;;;;;;;;;4875061;29;20094;-83
2023/01/22 10:57:20;;;;;;;11.30;6.05;;;;;;;;;;4908886;29;20032;-82
2023/01/22 11:00:04;;;;;;;9.68;5.85;;;;;;;;;;4886804;29;20040;-82
2023/01/22 11:02:32;;;;;;;11.20;5.85;;;;;;;;;;4902879;29;20044;-85
2023/01/22 11:05:06;;;;;;;11.43;6.07;;;;;;;;;;4896721;29;20516;-85
2023/01/22 11:07:32;;;;;;;12.07;6.05;;;;;;;;;;4883923;29;20043;-87
2023/01/22 11:13:52;;;;;;;10.50;5.97;;;;;;;;;;4817555;29;20054;-88
2023/01/22 11:16:19;;;;;;;9.45;5.35;;;;;;;;;;4904040;28;20138;-88
2023/01/22 11:18:51;;;;;;;;;;;;;;;;;;4925193;28;20050;-87
2023/01/22 11:21:25;;;;;;;9.93;5.07;;;;;;;;;;4905368;28;19918;-88
2023/01/22 11:24:00;;;;;;;8.70;5.00;;;;;;;;;;4931979;28;20099;-88
2023/01/22 11:26:47;;;;;;;9.57;5.50;;;;;;;;;;5001300;28;20109;-86
2023/01/22 11:29:21;;;;;;;11.63;6.28;;;;;;;;;;5029694;28;20508;-87
2023/01/22 11:31:50;;;;;;;10.50;5.75;;;;;;;;;;5010857;28;20389;-88
2023/01/22 11:34:18;;;;;;;9.48;5.22;;;;;;;;;;5015635;28;20124;-87
2023/01/22 11:36:57;;;;;;;10.07;5.95;;;;;;;;;;5033920;28;20061;-88
2023/01/22 11:39:32;;;;;;;11.43;5.90;;;;;;;;;;5019854;28;20539;-88
2023/01/22 11:42:18;;;;;;;10.60;5.85;;;;;;;;;;5028848;28;20508;-87
2023/01/22 11:45:16;;;;;;;10.05;5.57;;;;;;;;;;5016437;28;20156;-90
2023/01/22 11:47:51;;;;;;;10.50;6.13;;;;;;;;;;4991295;28;20048;-87
2023/01/22 11:50:19;;;;;;;15.00;7.78;;;;;;;;;;5030598;28;20128;-86
2023/01/22 11:52:49;;;;;;;11.57;6.05;;;;;;;;;;5020000;28;20049;-89
2023/01/22 11:55:39;;;;;;;9.32;4.70;;;;;;;;;;5004391;28;20391;-89
2023/01/22 11:58:17;;;;;;;9.23;5.20;;;;;;;;;;5043666;28;20064;-89
2023/01/22 12:00:57;;;;;;;9.32;5.07;;;;;;;;;;5023586;28;20041;-88
2023/01/22 12:03:43;;;;;;;9.07;4.78;;;;;;;;;;5026339;28;20033;-87
2023/01/22 12:06:48;;;;;;;8.40;4.93;;;;;;;;;;5012271;28;20040;-89
2023/01/22 12:09:24;;;;;;;8.70;5.25;;;;;;;;;;5010952;28;20467;-89
2023/01/22 12:12:02;;;;;;;9.52;5.10;;;;;;;;;;5033093;28;20531;-87
2023/01/22 12:14:37;;;;;;;9.43;5.40;;;;;;;;;;5031585;28;20036;-88
2023/01/22 12:17:17;;;;;;;9.18;5.15;;;;;;;;;;5051482;28;20036;-88
2023/01/22 12:20:04;;;;;;;9.40;5.00;;;;;;;;;;5033279;28;20037;-87
2023/01/22 12:22:51;;;;;;;10.25;5.43;;;;;;;;;;5053157;28;20048;-86
2023/01/22 12:25:47;;;;;;;9.55;4.97;;;;;;;;;;5046886;28;20097;-88
2023/01/22 12:28:14;;;;;;;8.98;5.00;;;;;;;;;;5053193;28;20032;-86
2023/01/22 12:30:49;;;;;;;9.48;5.18;;;;;;;;;;5034778;28;20054;-86
2023/01/22 12:33:20;;;;;;;20.80;9.95;;;;;;;;;;5023234;28;20040;-87
2023/01/22 12:35:49;;;;;;;12.90;6.80;;;;;;;;;;5040644;28;20143;-89
2023/01/22 12:38:46;;;;;;;11.75;5.80;;;;;;;;;;5036859;28;20040;-88
2023/01/22 12:41:35;;;;;;;9.93;5.60;;;;;;;;;;5018312;28;20520;-88
2023/01/22 12:44:17;;;;;;;12.25;6.15;;;;;;;;;;5047090;28;20059;-87
2023/01/22 12:47:04;;;;;;;11.15;5.78;;;;;;;;;;5011497;28;20097;-87
2023/01/22 12:49:29;;;;;;;11.48;5.50;;;;;;;;;;5054179;28;20595;-87
2023/01/22 12:51:58;;;;;;;10.68;5.90;;;;;;;;;;5037974;28;20063;-89
2023/01/22 12:54:35;;;;;;;10.65;5.80;;;;;;;;;;5031250;28;20040;-84
2023/01/22 12:57:14;;;;;;;9.63;5.97;;;;;;;;;;5035653;28;20037;-85
2023/01/22 12:59:46;;;;;;;10.10;5.75;;;;;;;;;;5027246;28;20516;-91
2023/01/22 13:02:29;;;;;;;10.13;5.75;;;;;;;;;;5029634;28;20037;-87
2023/01/22 13:04:55;;;;;;;9.27;4.75;;;;;;;;;;5037679;28;20056;-87
2023/01/22 13:07:28;;;;;;;10.88;5.78;;;;;;;;;;5036789;28;20488;-89
2023/01/22 13:10:04;;;;;;;10.68;5.95;;;;;;;;;;5037826;28;20041;-87
2023/01/22 13:12:45;;;;;;;11.07;5.90;;;;;;;;;;5012002;28;20040;-87
2023/01/22 13:15:20;;;;;;;10.13;5.75;;;;;;;;;;5030919;28;20033;-89
2023/01/22 13:17:53;;;;;;;11.60;6.30;;;;;;;;;;4999276;28;20090;-88
2023/01/22 13:20:19;;;;;;;11.18;6.18;;;;;;;;;;5016757;28;20052;-88
2023/01/22 13:22:45;;;;;;;11.93;6.53;;;;;;;;;;5041889;28;20529;-90
2023/01/22 13:25:25;;;;;;;11.82;6.55;;;;;;;;;;5031519;28;20116;-84
2023/01/22 13:27:51;;;;;;;13.25;6.60;;;;;;;;;;5015642;28;20053;-85
2023/01/22 13:30:24;;;;;;;13.35;7.00;;;;;;;;;;5013804;28;20088;-85
2023/01/22 13:32:49;;;;;;;13.77;6.72;;;;;;;;;;5034486;28;20053;-85
2023/01/22 13:35:15;;;;;;;12.48;6.72;;;;;;;;;;5018583;28;20077;-85
2023/01/22 13:37:43;;;;;;;11.38;6.40;;;;;;;;;;5031630;28;20401;-86
2023/01/22 13:40:22;;;;;;;11.40;6.00;;;;;;;;;;5007590;28;20040;-85
2023/01/22 13:42:47;;;;;;;11.50;6.20;;;;;;;;;;5016323;28;20045;-85
2023/01/22 13:45:27;;;;;;;13.88;7.00;;;;;;;;;;5042943;28;20374;-85
2023/01/22 13:47:55;;;;;;;12.48;6.13;;;;;;;;;;5025748;28;20418;-85
2023/01/22 13:50:23;;;;;;;13.25;6.25;;;;;;;;;;5014459;28;20536;-91
2023/01/22 13:52:49;;;;;;;10.70;5.70;;;;;;;;;;5025525;28;20047;-83
2023/01/22 13:55:22;;;;;;;13.82;6.22;;;;;;;;;;5040095;28;20940;-89
2023/01/22 13:57:50;;;;;;;13.00;6.50;;;;;;;;;;5020714;28;20064;-84
2023/01/22 14:00:26;;;;;;;;;;;;;;;;;;5039203;28;20536;-84
2023/01/22 14:02:54;;;;;;;13.25;6.43;;;;;;;;;;5020126;28;19972;-84
2023/01/22 14:05:25;;;;;;;12.18;6.30;;;;;;;;;;5025305;28;20048;-84
2023/01/22 14:07:50;;;;;;;13.07;6.43;;;;;;;;;;5038952;28;20040;-83
2023/01/22 14:10:23;;;;;;;12.88;6.45;;;;;;;;;;5014582;28;20048;-88
2023/01/22 14:13:05;;;;;;;13.32;6.88;;;;;;;;;;5014993;28;20123;-87
2023/01/22 14:15:36;;;;;;;12.23;6.68;;;;;;;;;;5016797;28;20029;-86
2023/01/22 14:18:25;;;;;;;13.07;6.75;;;;;;;;;;5004378;28;20037;-86
2023/01/22 14:20:50;;;;;;;12.73;6.90;;;;;;;;;;5015471;28;20037;-86
2023/01/22 14:23:16;;;;;;;11.85;6.55;;;;;;;;;;4994782;28;20539;-86
2023/01/22 14:25:49;;;;;;;13.68;6.95;;;;;;;;;;5047304;28;20043;-86
2023/01/22 14:28:28;;;;;;;16.02;7.30;;;;;;;;;;5022827;28;20505;-86
2023/01/22 14:31:30;;;;;;;23.38;10.15;;;;;;;;;;5017286;28;20033;-88
2023/01/22 14:40:55;;;;;;;12.98;7.00;;;;;;;;;;5024205;28;20039;-87
2023/01/22 14:43:26;;;;;;;12.98;7.40;;;;;;;;;;5002435;28;20539;-87
2023/01/22 14:45:54;;;;;;;15.48;7.80;;;;;;;;;;4984293;28;20094;-85
2023/01/22 14:48:22;;;;;;;14.65;7.43;;;;;;;;;;5016393;28;20562;-85
2023/01/22 14:50:48;;;;;;;17.85;8.52;;;;;;;;;;5012663;28;20064;-86
2023/01/22 14:53:23;;;;;;;16.95;8.45;;;;;;;;;;5020290;28;20515;-84
2023/01/22 14:55:49;;;;;;;16.05;7.75;;;;;;;;;;5035886;28;20467;-86
2023/01/22 14:58:15;;;;;;;14.90;7.40;;;;;;;;;;5047450;28;20025;-85
2023/01/22 15:00:40;;;;;;;20.20;7.25;;;;;;;;;;5012014;28;20041;-84
2023/01/22 15:03:06;;;;;;;17.65;8.52;;;;;;;;;;5021820;28;20048;-84
2023/01/22 15:05:31;;;;;;;14.07;7.38;;;;;;;;;;5007306;28;20049;-84
2023/01/22 15:08:00;;;;;;;15.25;7.70;;;;;;;;;;5024729;28;20399;-85
2023/01/22 15:10:26;;;;;;;15.48;7.95;;;;;;;;;;5017050;28;20051;-86
2023/01/22 15:12:52;;;;;;;14.95;6.90;;;;;;;;;;5024782;28;20545;-82
2023/01/22 15:15:25;;;;;;;19.83;8.60;;;;;;;;;;5013396;28;20119;-86
2023/01/22 15:17:51;;;;;;;17.95;7.78;;;;;;;;;;5021584;28;20103;-84
2023/01/22 15:20:17;;;;;;;14.75;7.68;;;;;;;;;;5019761;28;20507;-85
2023/01/22 15:22:43;;;;;;;15.75;7.50;;;;;;;;;;5013698;28;20036;-85
2023/01/22 15:25:09;;;;;;;14.85;8.45;;;;;;;;;;4989864;28;20503;-85
2023/01/22 15:27:34;;;;;;;18.58;8.20;;;;;;;;;;4994664;28;20507;-84
2023/01/22 15:30:02;;;;;;;34.17;14.02;;;;;;;;;;5022054;28;20024;-85
2023/01/22 15:32:28;;;;;;;18.67;9.30;;;;;;;;;;5019607;28;20048;-84
2023/01/22 15:34:54;;;;;;;15.65;7.70;;;;;;;;;;5026947;28;20542;-84
2023/01/22 15:37:19;;;;;;;15.27;7.90;;;;;;;;;;5029680;28;20029;-86
2023/01/22 15:39:44;;;;;;;16.10;8.27;;;;;;;;;;5026913;28;20111;-85
2023/01/22 15:42:10;;;;;;;18.95;8.50;;;;;;;;;;5009153;28;20797;-87
2023/01/22 15:44:36;;;;;;;15.48;7.95;;;;;;;;;;5020105;28;20041;-87
2023/01/22 15:47:17;;;;;;;;;;;;;;;;;;;;;
2023/01/22 15:49:46;;;;;;;19.52;8.45;;;;;;;;;;5034308;28;20033;-85
2023/01/22 15:52:37;;;;;;;18.77;8.88;;;;;;;;;;5001154;28;20453;-82
2023/01/22 15:55:03;;;;;;;16.48;8.02;;;;;;;;;;5011691;28;20044;-82
2023/01/22 15:57:31;;;;;;;16.33;7.95;;;;;;;;;;4998661;28;20040;-83
2023/01/22 15:59:56;;;;;;;19.42;8.40;;;;;;;;;;5026859;28;20060;-82
2023/01/22 16:02:24;;;;;;;17.25;8.13;;;;;;;;;;5006348;28;20095;-83
2023/01/22 16:04:50;;;;;;;20.98;8.82;;;;;;;;;;5004438;28;20041;-81
2023/01/22 16:07:23;;;;;;;15.60;7.95;;;;;;;;;;4980785;28;20679;-84
2023/01/22 16:09:53;;;;;;;18.42;8.57;;;;;;;;;;5013923;28;20044;-85